Time;durP1;ratioP1;P1;durP2;ratioP2;P2;SDS_P1;SDS_P2;PMS_P1;PMS_P2;Temp;Humidity;BMP_temperature;BMP_pressure;BME280_temperature;BME280_humidity;BME280_pressure;Samples;Min_cycle;Max_cycle;Signal;HPM_P1;HPM_P2
2021/07/23 00:01:59;;;;;;;;;;;16.50;99.90;;;;;;5067663;28;19920;-66
2021/07/23 00:04:24;;;;;;;;;;;16.50;99.90;;;;;;5068840;28;19995;-66
2021/07/23 00:06:53;;;;;;;;;;;16.60;99.90;;;;;;5057167;28;20319;-67
2021/07/23 00:09:18;;;;;;;;;;;16.60;99.90;;;;;;5049247;28;19959;-66
2021/07/23 00:11:49;;;;;;;;;;;16.60;99.90;;;;;;5057762;28;19952;-66
2021/07/23 00:14:20;;;;;;;;;;;16.70;99.90;;;;;;5068432;28;20376;-66
2021/07/23 00:16:45;;;;;;;;;;;16.70;99.90;;;;;;5068327;28;19920;-66
2021/07/23 00:19:11;;;;;;;;;;;16.70;99.90;;;;;;5067811;28;19908;-66
2021/07/23 00:21:38;;;;;;;;;;;16.80;99.90;;;;;;5050890;28;20004;-66
2021/07/23 00:24:09;;;;;;;;;;;16.80;99.90;;;;;;5060352;28;19904;-66
2021/07/23 00:26:37;;;;;;;;;;;16.80;99.90;;;;;;5065621;28;19936;-66
2021/07/23 00:29:02;;;;;;;;;;;16.80;99.90;;;;;;5068881;28;19905;-66
2021/07/23 00:31:31;;;;;;;;;;;16.90;99.90;;;;;;5061547;28;19940;-66
2021/07/23 00:33:56;;;;;;;;;;;16.90;99.90;;;;;;5046862;28;20002;-66
2021/07/23 00:36:22;;;;;;;;;;;16.90;99.90;;;;;;5067182;28;20011;-66
2021/07/23 00:38:47;;;;;;;;;;;16.90;99.90;;;;;;5067239;28;19911;-66
2021/07/23 00:41:12;;;;;;;;;;;16.90;99.90;;;;;;5069007;28;20351;-66
2021/07/23 00:43:40;;;;;;;;;;;16.90;99.90;;;;;;5067644;28;19913;-66
2021/07/23 00:46:06;;;;;;;;;;;16.90;99.90;;;;;;5068973;28;19927;-66
2021/07/23 00:48:32;;;;;;;;;;;16.90;99.90;;;;;;5067968;28;19915;-66
2021/07/23 00:50:58;;;;;;;;;;;17.00;99.90;;;;;;5068019;28;19951;-66
2021/07/23 00:53:23;;;;;;;;;;;17.00;99.90;;;;;;5049221;28;19912;-66
2021/07/23 00:55:54;;;;;;;;;;;17.00;99.90;;;;;;5068718;28;19904;-66
2021/07/23 00:58:19;;;;;;;;;;;17.00;99.90;;;;;;5068532;28;20199;-66
2021/07/23 01:00:55;;;;;;;;;;;17.00;99.90;;;;;;5068514;28;20430;-66
2021/07/23 01:03:23;;;;;;;;;;;17.00;99.90;;;;;;5067571;28;19918;-66
2021/07/23 01:05:52;;;;;;;;;;;17.00;99.90;;;;;;5066801;28;19908;-66
2021/07/23 01:08:20;;;;;;;;;;;17.00;99.90;;;;;;5068786;28;19975;-66
2021/07/23 01:10:48;;;;;;;;;;;17.10;99.90;;;;;;5075873;28;19923;-66
2021/07/23 01:13:14;;;;;;;;;;;17.10;99.90;;;;;;5072146;28;20301;-66
2021/07/23 01:15:39;;;;;;;;;;;17.10;99.90;;;;;;5068562;28;19923;-66
2021/07/23 01:18:07;;;;;;;;;;;17.10;99.90;;;;;;5068355;28;19936;-66
2021/07/23 01:20:38;;;;;;;;;;;17.10;99.90;;;;;;5057904;28;20507;-66
2021/07/23 01:23:03;;;;;;;;;;;17.10;99.90;;;;;;5059570;28;19911;-66
2021/07/23 01:25:32;;;;;;;;;;;17.10;99.90;;;;;;5067000;28;19904;-66
2021/07/23 01:27:59;;;;;;;;;;;17.00;99.90;;;;;;5067370;28;19919;-66
2021/07/23 01:30:27;;;;;;;;;;;17.10;99.90;;;;;;5050114;28;20014;-66
2021/07/23 01:32:53;;;;;;;;;;;17.10;99.90;;;;;;5049391;28;19984;-66
2021/07/23 01:35:20;;;;;;;;;;;17.10;99.90;;;;;;5066863;28;20203;-66
2021/07/23 01:37:46;;;;;;;;;;;17.00;99.90;;;;;;5050290;28;20299;-66
2021/07/23 01:40:14;;;;;;;;;;;17.00;99.90;;;;;;5067353;28;19991;-66
2021/07/23 01:42:40;;;;;;;;;;;16.90;99.90;;;;;;5063936;28;19909;-66
2021/07/23 01:45:12;;;;;;;;;;;16.90;99.90;;;;;;5067528;28;20383;-66
2021/07/23 01:47:37;;;;;;;;;;;16.90;99.90;;;;;;5067868;28;19998;-66
2021/07/23 01:50:05;;;;;;;;;;;16.90;99.90;;;;;;5071108;28;20419;-66
2021/07/23 01:52:32;;;;;;;;;;;16.80;99.90;;;;;;5070157;28;19961;-66
2021/07/23 01:54:58;;;;;;;;;;;16.70;99.90;;;;;;5071446;28;20392;-66
2021/07/23 01:57:24;;;;;;;;;;;16.70;99.90;;;;;;5070111;28;19950;-66
2021/07/23 01:59:51;;;;;;;;;;;16.70;99.90;;;;;;5070386;28;19912;-66
2021/07/23 02:02:21;;;;;;;;;;;16.70;99.90;;;;;;5071128;28;20013;-66
2021/07/23 02:04:47;;;;;;;;;;;16.70;99.90;;;;;;5071485;28;20261;-66
2021/07/23 02:07:12;;;;;;;;;;;16.80;99.90;;;;;;5056791;28;19917;-66
2021/07/23 02:09:38;;;;;;;;;;;16.80;99.90;;;;;;5069358;28;19919;-66
2021/07/23 02:12:06;;;;;;;;;;;16.80;99.90;;;;;;5071493;28;19904;-66
2021/07/23 02:14:31;;;;;;;;;;;16.70;99.90;;;;;;5059419;28;20244;-66
2021/07/23 02:16:57;;;;;;;;;;;16.70;99.90;;;;;;5070520;28;19927;-66
2021/07/23 02:19:22;;;;;;;;;;;16.80;99.90;;;;;;5071451;28;19934;-66
2021/07/23 02:21:50;;;;;;;;;;;16.80;99.90;;;;;;5060783;28;19943;-66
2021/07/23 02:24:20;;;;;;;;;;;16.80;99.90;;;;;;5070769;28;20161;-66
2021/07/23 02:26:46;;;;;;;;;;;16.80;99.90;;;;;;5069914;28;19963;-66
2021/07/23 02:29:11;;;;;;;;;;;16.80;99.90;;;;;;5071368;28;20380;-65
2021/07/23 02:31:36;;;;;;;;;;;16.80;99.90;;;;;;5054874;28;20027;-66
2021/07/23 02:34:12;;;;;;;;;;;16.90;99.90;;;;;;5053910;28;19912;-66
2021/07/23 02:36:40;;;;;;;;;;;16.90;99.90;;;;;;5069902;28;19904;-66
2021/07/23 02:39:06;;;;;;;;;;;16.90;99.90;;;;;;5070825;28;19920;-65
2021/07/23 02:41:33;;;;;;;;;;;16.90;99.90;;;;;;5069468;28;19911;-66
2021/07/23 02:43:59;;;;;;;;;;;16.90;99.90;;;;;;5069878;28;19908;-66
2021/07/23 02:46:24;;;;;;;;;;;16.90;99.90;;;;;;5070717;28;20086;-66
2021/07/23 02:48:50;;;;;;;;;;;16.90;99.90;;;;;;5039091;28;19960;-66
2021/07/23 02:51:15;;;;;;;;;;;16.90;99.90;;;;;;5052409;28;19985;-66
2021/07/23 02:53:41;;;;;;;;;;;16.90;99.90;;;;;;5069343;28;19926;-66
2021/07/23 02:56:18;;;;;;;;;;;16.90;99.90;;;;;;5070714;28;20360;-66
2021/07/23 02:58:46;;;;;;;;;;;16.90;99.90;;;;;;5070545;28;19904;-67
2021/07/23 03:01:14;;;;;;;;;;;16.90;99.90;;;;;;5068906;28;19915;-67
2021/07/23 03:03:41;;;;;;;;;;;16.90;99.90;;;;;;5069624;28;19960;-66
2021/07/23 03:06:10;;;;;;;;;;;17.00;99.90;;;;;;5052196;28;19908;-67
2021/07/23 03:08:35;;;;;;;;;;;17.00;99.90;;;;;;5051408;28;19927;-66
2021/07/23 03:11:01;;;;;;;;;;;16.90;99.90;;;;;;5070400;28;19922;-66
2021/07/23 03:13:29;;;;;;;;;;;17.00;99.90;;;;;;5069483;28;19932;-66
2021/07/23 03:15:54;;;;;;;;;;;16.90;99.90;;;;;;5051765;28;19905;-66
2021/07/23 03:18:20;;;;;;;;;;;16.90;99.90;;;;;;5069223;28;20052;-66
2021/07/23 03:20:45;;;;;;;;;;;17.00;99.90;;;;;;5041691;28;19983;-66
2021/07/23 03:23:11;;;;;;;;;;;16.90;99.90;;;;;;5062320;28;19904;-65
2021/07/23 03:25:37;;;;;;;;;;;16.90;99.90;;;;;;5068849;28;19917;-66
2021/07/23 03:28:02;;;;;;;;;;;16.90;99.90;;;;;;5068635;28;20022;-66
2021/07/23 03:30:28;;;;;;;;;;;16.90;99.90;;;;;;5070110;28;19944;-66
2021/07/23 03:32:56;;;;;;;;;;;16.90;99.90;;;;;;5069473;28;19909;-65
2021/07/23 03:35:25;;;;;;;;;;;16.90;99.90;;;;;;5051766;28;19999;-70
2021/07/23 03:37:52;;;;;;;;;;;16.90;99.90;;;;;;5068992;28;19904;-66
2021/07/23 03:40:20;;;;;;;;;;;16.90;99.90;;;;;;5060827;28;20292;-66
2021/07/23 03:42:45;;;;;;;;;;;16.90;99.90;;;;;;5049456;28;20341;-65
2021/07/23 03:45:11;;;;;;;;;;;17.00;99.90;;;;;;5064579;28;19913;-65
2021/07/23 03:47:37;;;;;;;;;;;17.00;99.90;;;;;;5069550;28;19963;-66
2021/07/23 03:50:02;;;;;;;;;;;17.00;99.90;;;;;;5069582;28;19908;-65
2021/07/23 03:52:30;;;;;;;;;;;17.00;99.90;;;;;;5068785;28;19919;-69
2021/07/23 03:54:55;;;;;;;;;;;17.00;99.90;;;;;;5068542;28;19912;-66
2021/07/23 03:57:26;;;;;;;;;;;17.00;99.90;;;;;;5072119;28;19995;-66
2021/07/23 03:59:52;;;;;;;;;;;17.00;99.90;;;;;;5076306;28;19904;-66
2021/07/23 04:02:17;;;;;;;;;;;17.00;99.90;;;;;;5069909;28;19935;-66
2021/07/23 04:04:43;;;;;;;;;;;17.00;99.90;;;;;;5051389;28;19916;-66
2021/07/23 04:07:10;;;;;;;;;;;17.00;99.90;;;;;;5055198;28;20455;-65
2021/07/23 04:09:36;;;;;;;;;;;17.00;99.90;;;;;;5051050;28;20368;-66
2021/07/23 04:12:03;;;;;;;;;;;17.00;99.90;;;;;;5064543;28;19908;-66
2021/07/23 04:14:29;;;;;;;;;;;17.00;99.90;;;;;;5060524;28;19908;-66
2021/07/23 04:16:57;;;;;;;;;;;17.00;99.90;;;;;;5069370;28;19962;-66
2021/07/23 04:19:22;;;;;;;;;;;17.00;99.90;;;;;;5067695;28;19909;-66
2021/07/23 04:21:51;;;;;;;;;;;17.10;99.90;;;;;;5049097;28;20356;-65
2021/07/23 04:24:16;;;;;;;;;;;17.00;99.90;;;;;;5048840;28;19905;-66
2021/07/23 04:26:42;;;;;;;;;;;17.00;99.90;;;;;;5060348;28;19916;-66
2021/07/23 04:29:10;;;;;;;;;;;17.00;99.90;;;;;;5067060;28;19927;-65
2021/07/23 04:31:35;;;;;;;;;;;17.00;99.90;;;;;;5068776;28;20229;-65
2021/07/23 04:34:03;;;;;;;;;;;17.00;99.90;;;;;;5070515;28;19958;-65
2021/07/23 04:36:31;;;;;;;;;;;17.10;99.90;;;;;;5069505;28;19958;-65
2021/07/23 04:39:03;;;;;;;;;;;17.10;99.90;;;;;;5070513;28;20018;-66
2021/07/23 04:41:28;;;;;;;;;;;17.10;99.90;;;;;;5070806;28;20210;-66
2021/07/23 04:43:54;;;;;;;;;;;17.10;99.90;;;;;;5065340;28;19919;-65
2021/07/23 04:46:19;;;;;;;;;;;17.10;99.90;;;;;;5068777;28;20268;-65
2021/07/23 04:48:44;;;;;;;;;;;17.10;99.90;;;;;;5069947;28;20293;-66
2021/07/23 04:51:10;;;;;;;;;;;17.10;99.90;;;;;;5070462;28;19916;-65
2021/07/23 04:53:35;;;;;;;;;;;17.20;99.90;;;;;;5070057;28;19913;-65
2021/07/23 04:56:05;;;;;;;;;;;17.20;99.90;;;;;;5069443;28;19986;-65
2021/07/23 04:58:30;;;;;;;;;;;17.20;99.90;;;;;;5070469;28;19927;-65
2021/07/23 05:00:56;;;;;;;;;;;17.20;99.90;;;;;;5070468;28;20415;-65
2021/07/23 05:03:23;;;;;;;;;;;17.20;99.90;;;;;;5068206;28;20003;-64
2021/07/23 05:05:52;;;;;;;;;;;17.20;99.90;;;;;;5039412;28;21473;-64
2021/07/23 05:08:17;;;;;;;;;;;17.20;99.90;;;;;;5057623;28;19908;-65
2021/07/23 05:10:43;;;;;;;;;;;17.20;99.90;;;;;;5069429;28;19904;-64
2021/07/23 05:13:09;;;;;;;;;;;17.20;99.90;;;;;;5069451;28;19905;-64
2021/07/23 05:15:44;;;;;;;;;;;17.20;99.90;;;;;;5070402;28;19980;-64
2021/07/23 05:18:09;;;;;;;;;;;17.20;99.90;;;;;;5066037;28;19958;-64
2021/07/23 05:20:36;;;;;;;;;;;17.20;99.90;;;;;;5069652;28;19954;-64
2021/07/23 05:23:04;;;;;;;;;;;17.20;99.90;;;;;;5056959;28;20315;-64
2021/07/23 05:25:31;;;;;;;;;;;17.10;99.90;;;;;;5055785;28;19905;-64
2021/07/23 05:27:59;;;;;;;;;;;17.20;99.90;;;;;;5072965;28;19935;-64
2021/07/23 05:30:25;;;;;;;;;;;17.20;99.90;;;;;;5074187;28;19916;-64
2021/07/23 05:32:52;;;;;;;;;;;17.20;99.90;;;;;;5073362;28;19904;-65
2021/07/23 05:35:25;;;;;;;;;;;17.20;99.90;;;;;;5073959;28;20368;-64
2021/07/23 05:37:51;;;;;;;;;;;17.20;99.90;;;;;;5063129;28;20269;-64
2021/07/23 05:40:16;;;;;;;;;;;17.20;99.90;;;;;;5054631;28;19911;-64
2021/07/23 05:42:46;;;;;;;;;;;17.30;99.90;;;;;;5035877;28;19915;-64
2021/07/23 05:45:15;;;;;;;;;;;17.40;99.90;;;;;;5035485;28;20448;-64
2021/07/23 05:47:40;;;;;;;;;;;17.40;99.90;;;;;;5068575;28;20014;-64
2021/07/23 05:50:06;;;;;;;;;;;17.40;99.90;;;;;;5055497;28;19904;-64
2021/07/23 05:52:34;;;;;;;;;;;17.40;99.90;;;;;;5073538;28;20001;-64
2021/07/23 05:54:59;;;;;;;;;;;17.30;99.90;;;;;;5071346;28;19908;-64
2021/07/23 05:57:30;;;;;;;;;;;17.40;99.90;;;;;;5055934;28;19998;-64
2021/07/23 05:59:55;;;;;;;;;;;17.40;99.90;;;;;;5053429;28;19999;-64
2021/07/23 06:02:20;;;;;;;;;;;17.30;99.90;;;;;;5057813;28;19999;-64
2021/07/23 06:04:46;;;;;;;;;;;17.30;99.90;;;;;;5056850;28;20000;-64
2021/07/23 06:07:14;;;;;;;;;;;17.30;99.90;;;;;;5057358;28;19991;-65
2021/07/23 06:09:39;;;;;;;;;;;17.40;99.90;;;;;;5038973;28;19959;-64
2021/07/23 06:12:05;;;;;;;;;;;17.40;99.90;;;;;;5063659;28;19944;-64
2021/07/23 06:14:31;;;;;;;;;;;17.40;99.90;;;;;;5058068;28;19909;-64
2021/07/23 06:16:56;;;;;;;;;;;17.40;99.90;;;;;;5053894;28;19963;-64
2021/07/23 06:19:22;;;;;;;;;;;17.40;99.90;;;;;;5052898;28;19905;-64
2021/07/23 06:21:47;;;;;;;;;;;17.40;99.90;;;;;;5057013;28;19909;-64
2021/07/23 06:24:13;;;;;;;;;;;17.40;99.90;;;;;;5056301;28;19904;-63
2021/07/23 06:26:40;;;;;;;;;;;17.40;99.90;;;;;;5063368;28;20331;-64
2021/07/23 06:29:05;;;;;;;;;;;17.40;99.90;;;;;;5057629;28;20037;-64
2021/07/23 06:31:31;;;;;;;;;;;17.40;99.90;;;;;;5054722;28;20371;-64
2021/07/23 06:33:58;;;;;;;;;;;17.50;99.90;;;;;;5057602;28;19904;-64
2021/07/23 06:36:24;;;;;;;;;;;17.50;99.90;;;;;;5060784;28;19912;-64
2021/07/23 06:38:49;;;;;;;;;;;17.50;99.90;;;;;;5068177;28;19908;-64
2021/07/23 06:41:14;;;;;;;;;;;17.50;99.90;;;;;;5072700;28;19908;-64
2021/07/23 06:43:40;;;;;;;;;;;17.50;99.90;;;;;;5058625;28;19931;-64
2021/07/23 06:46:05;;;;;;;;;;;17.50;99.90;;;;;;5060554;28;19928;-64
2021/07/23 06:48:32;;;;;;;;;;;17.50;99.90;;;;;;5057543;28;19964;-64
2021/07/23 06:50:58;;;;;;;;;;;17.50;99.90;;;;;;5054920;28;19916;-64
2021/07/23 06:53:23;;;;;;;;;;;17.50;99.90;;;;;;5058382;28;19908;-63
2021/07/23 06:55:50;;;;;;;;;;;17.60;99.90;;;;;;5062499;28;19998;-64
2021/07/23 06:58:16;;;;;;;;;;;17.60;99.90;;;;;;5041566;28;19920;-63
2021/07/23 07:00:44;;;;;;;;;;;17.70;99.90;;;;;;5059361;28;19913;-63
2021/07/23 07:03:10;;;;;;;;;;;17.70;99.90;;;;;;5058461;28;19913;-64
2021/07/23 07:05:35;;;;;;;;;;;17.80;99.90;;;;;;5059988;28;19919;-64
2021/07/23 07:08:01;;;;;;;;;;;17.90;99.90;;;;;;5059529;28;19967;-65
2021/07/23 07:10:27;;;;;;;;;;;17.90;99.90;;;;;;5065835;28;19905;-64
2021/07/23 07:12:56;;;;;;;;;;;17.90;99.90;;;;;;5061701;28;20353;-64
2021/07/23 07:15:22;;;;;;;;;;;17.80;99.90;;;;;;5057926;28;20012;-64
2021/07/23 07:17:47;;;;;;;;;;;17.90;99.90;;;;;;5071478;28;19940;-64
2021/07/23 07:20:12;;;;;;;;;;;17.80;99.90;;;;;;5061969;28;19916;-64
2021/07/23 07:22:38;;;;;;;;;;;17.80;99.90;;;;;;5060100;28;19905;-64
2021/07/23 07:25:04;;;;;;;;;;;17.90;99.90;;;;;;5068671;28;20411;-67
2021/07/23 07:27:29;;;;;;;;;;;17.90;99.90;;;;;;5060399;28;19912;-64
2021/07/23 07:29:54;;;;;;;;;;;17.90;99.90;;;;;;5052283;28;20349;-64
2021/07/23 07:32:20;;;;;;;;;;;17.90;99.90;;;;;;5052937;28;20009;-64
2021/07/23 07:34:45;;;;;;;;;;;18.00;99.90;;;;;;5050633;28;19909;-64
2021/07/23 07:37:11;;;;;;;;;;;18.10;99.90;;;;;;5056678;28;19915;-64
2021/07/23 07:39:36;;;;;;;;;;;18.10;99.90;;;;;;5055292;28;20000;-64
2021/07/23 07:42:02;;;;;;;;;;;18.10;99.90;;;;;;5059985;28;19909;-64
2021/07/23 07:44:28;;;;;;;;;;;18.10;99.90;;;;;;5054269;28;19959;-64
2021/07/23 07:46:53;;;;;;;;;;;18.20;99.90;;;;;;5070166;28;19912;-64
2021/07/23 07:49:22;;;;;;;;;;;18.20;99.90;;;;;;5051923;28;20351;-64
2021/07/23 07:51:49;;;;;;;;;;;18.30;99.90;;;;;;5063735;28;20418;-65
2021/07/23 07:54:15;;;;;;;;;;;18.30;99.90;;;;;;5058570;28;19920;-63
2021/07/23 07:56:40;;;;;;;;;;;18.30;99.90;;;;;;5053934;28;20313;-64
2021/07/23 07:59:07;;;;;;;;;;;18.30;99.90;;;;;;5070861;28;19946;-65
2021/07/23 08:01:32;;;;;;;;;;;18.40;99.90;;;;;;5060739;28;19911;-64
2021/07/23 08:03:57;;;;;;;;;;;18.50;99.90;;;;;;5055902;28;19912;-64
2021/07/23 08:06:24;;;;;;;;;;;18.50;99.90;;;;;;5051187;28;19931;-63
2021/07/23 08:08:51;;;;;;;;;;;18.50;99.90;;;;;;5065512;28;20364;-64
2021/07/23 08:11:17;;;;;;;;;;;18.60;99.90;;;;;;5057655;28;19911;-64
2021/07/23 08:13:43;;;;;;;;;;;18.60;99.90;;;;;;5065392;28;19904;-65
2021/07/23 08:16:09;;;;;;;;;;;18.60;99.90;;;;;;5069237;28;19936;-64
2021/07/23 08:18:34;;;;;;;;;;;18.60;99.90;;;;;;5052424;28;19967;-65
2021/07/23 08:21:01;;;;;;;;;;;18.60;99.90;;;;;;5058332;28;19916;-64
2021/07/23 08:23:26;;;;;;;;;;;18.70;99.90;;;;;;5051264;28;19905;-64
2021/07/23 08:25:52;;;;;;;;;;;18.70;99.90;;;;;;5051348;28;19914;-64
2021/07/23 08:28:17;;;;;;;;;;;18.80;99.90;;;;;;5055817;28;19912;-64
2021/07/23 08:30:43;;;;;;;;;;;18.70;99.90;;;;;;5058659;28;19908;-64
2021/07/23 08:33:09;;;;;;;;;;;18.60;99.90;;;;;;5070140;28;19908;-64
2021/07/23 08:35:35;;;;;;;;;;;18.70;99.90;;;;;;5069044;28;20237;-64
2021/07/23 08:38:01;;;;;;;;;;;18.60;99.90;;;;;;5070267;28;19995;-65
2021/07/23 08:40:26;;;;;;;;;;;18.60;99.90;;;;;;5070224;28;19992;-64
2021/07/23 08:42:52;;;;;;;;;;;18.60;99.90;;;;;;5069139;28;19908;-64
2021/07/23 08:45:17;;;;;;;;;;;18.60;99.90;;;;;;5057773;28;19911;-64
2021/07/23 08:47:43;;;;;;;;;;;18.60;99.90;;;;;;5064805;28;20046;-64
2021/07/23 08:50:08;;;;;;;;;;;18.60;99.90;;;;;;5070448;28;20217;-63
2021/07/23 08:52:40;;;;;;;;;;;18.70;99.90;;;;;;5065510;28;20317;-65
2021/07/23 08:55:06;;;;;;;;;;;18.70;99.90;;;;;;5050229;28;19904;-64
2021/07/23 08:57:31;;;;;;;;;;;18.70;99.90;;;;;;5066157;28;19904;-64
2021/07/23 08:59:57;;;;;;;;;;;18.80;99.90;;;;;;5066974;28;19904;-64
2021/07/23 09:02:22;;;;;;;;;;;18.80;99.90;;;;;;5062973;28;19921;-63
2021/07/23 09:04:48;;;;;;;;;;;18.90;99.90;;;;;;5053814;28;19905;-65
2021/07/23 09:07:20;;;;;;;;;;;19.00;99.90;;;;;;5068372;28;20352;-64
2021/07/23 09:09:56;;;;;;;;;;;19.00;99.90;;;;;;5074292;28;19908;-64
2021/07/23 09:12:21;;;;;;;;;;;19.00;99.90;;;;;;5065658;28;20000;-64
2021/07/23 09:14:47;;;;;;;;;;;19.00;99.90;;;;;;5053845;28;19908;-64
2021/07/23 09:17:12;;;;;;;;;;;19.00;99.90;;;;;;5054288;28;19904;-64
2021/07/23 09:19:38;;;;;;;;;;;19.00;99.90;;;;;;5059247;28;19959;-65
2021/07/23 09:22:05;;;;;;;;;;;19.10;99.90;;;;;;5070719;28;19989;-64
2021/07/23 09:24:49;;;;;;;;;;;19.20;99.90;;;;;;5054507;28;20448;-64
2021/07/23 09:27:30;;;;;;;;;;;19.30;99.90;;;;;;5060378;28;19920;-65
2021/07/23 09:29:57;;;;;;;;;;;19.40;99.90;;;;;;5067377;28;19916;-65
2021/07/23 09:32:26;;;;;;;;;;;19.60;99.90;;;;;;5073794;28;19943;-64
2021/07/23 09:34:52;;;;;;;;;;;19.50;99.90;;;;;;5072622;28;19905;-64
2021/07/23 09:37:17;;;;;;;;;;;19.50;99.90;;;;;;5064871;28;19991;-64
2021/07/23 09:39:54;;;;;;;;;;;19.50;99.90;;;;;;5073537;28;19929;-65
2021/07/23 09:42:20;;;;;;;;;;;19.60;99.90;;;;;;5075618;28;19904;-64
2021/07/23 09:44:46;;;;;;;;;;;19.70;99.90;;;;;;5084715;28;20020;-65
2021/07/23 09:47:23;;;;;;;;;;;19.80;99.90;;;;;;5081661;28;19923;-65
2021/07/23 09:49:49;;;;;;;;;;;19.80;99.90;;;;;;5074816;28;20008;-65
2021/07/23 09:52:15;;;;;;;;;;;19.90;99.90;;;;;;5063959;28;19912;-64
2021/07/23 09:54:40;;;;;;;;;;;20.10;99.90;;;;;;5059187;28;19955;-63
2021/07/23 09:57:07;;;;;;;;;;;20.00;99.90;;;;;;5037404;28;20388;-64
2021/07/23 09:59:53;;;;;;;;;;;20.10;99.90;;;;;;5055207;28;19948;-65
2021/07/23 10:02:21;;;;;;;;;;;20.20;99.90;;;;;;5055157;28;19974;-64
2021/07/23 10:04:49;;;;;;;;;;;20.20;99.90;;;;;;5064369;28;19965;-65
2021/07/23 10:07:23;;;;;;;;;;;20.30;99.90;;;;;;5047373;28;19916;-65
2021/07/23 10:09:50;;;;;;;;;;;20.30;99.90;;;;;;5062869;28;19909;-65
2021/07/23 10:12:17;;;;;;;;;;;20.40;99.90;;;;;;5061308;28;20249;-65
2021/07/23 10:14:44;;;;;;;;;;;20.50;99.90;;;;;;5068496;28;19908;-65
2021/07/23 10:17:10;;;;;;;;;;;20.50;99.90;;;;;;5054386;28;20313;-65
2021/07/23 10:19:35;;;;;;;;;;;20.30;99.90;;;;;;5071133;28;19924;-65
2021/07/23 10:22:01;;;;;;;;;;;20.30;99.90;;;;;;5052454;28;19916;-65
2021/07/23 10:24:31;;;;;;;;;;;20.20;99.90;;;;;;5058237;28;19965;-65
2021/07/23 10:26:57;;;;;;;;;;;20.10;99.90;;;;;;5062547;28;19923;-65
2021/07/23 10:29:42;;;;;;;;;;;20.10;99.90;;;;;;5066342;28;19904;-65
2021/07/23 10:32:22;;;;;;;;;;;20.00;99.90;;;;;;5054433;28;19905;-65
2021/07/23 10:34:48;;;;;;;;;;;20.00;99.90;;;;;;5054142;28;19928;-64
2021/07/23 10:37:33;;;;;;;;;;;20.00;99.90;;;;;;5071343;28;19952;-65
2021/07/23 10:40:12;;;;;;;;;;;20.10;99.90;;;;;;5053981;28;19957;-65
2021/07/23 10:42:40;;;;;;;;;;;20.10;99.90;;;;;;5069060;28;20395;-65
2021/07/23 10:45:12;;;;;;;;;;;20.00;99.90;;;;;;5060184;28;20352;-65
2021/07/23 10:47:42;;;;;;;;;;;20.00;99.90;;;;;;5057728;28;20437;-65
2021/07/23 10:50:08;;;;;;;;;;;20.00;99.90;;;;;;5070747;28;19904;-65
2021/07/23 10:52:36;;;;;;;;;;;20.10;99.90;;;;;;5060258;28;19984;-64
2021/07/23 10:55:12;;;;;;;;;;;20.20;99.90;;;;;;5050235;28;19909;-65
2021/07/23 10:57:40;;;;;;;;;;;20.40;99.90;;;;;;5054731;28;19957;-65
2021/07/23 11:00:06;;;;;;;;;;;20.60;99.90;;;;;;5066378;28;20060;-65
2021/07/23 11:02:32;;;;;;;;;;;20.60;99.90;;;;;;5074477;22;20023;-66
2021/07/23 11:05:05;;;;;;;;;;;20.60;99.90;;;;;;5046335;28;20425;-65
2021/07/23 11:07:31;;;;;;;;;;;20.60;99.90;;;;;;5072729;28;19923;-65
2021/07/23 11:09:56;;;;;;;;;;;20.70;99.90;;;;;;5073215;28;19905;-65
2021/07/23 11:12:23;;;;;;;;;;;20.70;99.90;;;;;;5071669;28;19908;-65
2021/07/23 11:14:51;;;;;;;;;;;20.70;99.90;;;;;;5072853;28;19991;-64
2021/07/23 11:17:17;;;;;;;;;;;20.60;99.90;;;;;;5068501;28;19987;-65
2021/07/23 11:19:46;;;;;;;;;;;20.60;99.90;;;;;;5054847;28;19991;-65
2021/07/23 11:22:12;;;;;;;;;;;20.70;99.90;;;;;;5059504;28;20441;-67
2021/07/23 11:24:40;;;;;;;;;;;20.80;99.90;;;;;;5072096;28;19904;-64
2021/07/23 11:27:05;;;;;;;;;;;21.00;99.90;;;;;;5066704;28;19912;-65
2021/07/23 11:29:32;;;;;;;;;;;21.00;99.90;;;;;;5066861;28;19931;-64
2021/07/23 11:32:23;;;;;;;;;;;21.00;99.90;;;;;;5072868;28;19908;-65
2021/07/23 11:35:10;;;;;;;;;;;21.00;99.90;;;;;;5066306;28;19934;-65
2021/07/23 11:37:38;;;;;;;;;;;21.00;99.90;;;;;;5072573;28;19905;-65
2021/07/23 11:40:04;;;;;;;;;;;21.00;99.90;;;;;;5060500;28;19912;-65
2021/07/23 11:42:40;;;;;;;;;;;21.00;99.90;;;;;;5070941;28;19908;-65
2021/07/23 11:45:06;;;;;;;;;;;20.90;99.90;;;;;;5054424;28;20356;-65
2021/07/23 11:47:32;;;;;;;;;;;20.90;99.90;;;;;;5072513;28;20062;-65
2021/07/23 11:50:05;;;;;;;;;;;20.80;99.90;;;;;;5065372;28;19915;-65
2021/07/23 11:52:30;;;;;;;;;;;20.80;99.90;;;;;;5069371;28;19948;-66
2021/07/23 11:55:09;;;;;;;;;;;20.70;99.90;;;;;;5068649;28;20682;-65
2021/07/23 11:57:36;;;;;;;;;;;20.70;99.90;;;;;;5059856;28;19908;-64
2021/07/23 12:00:02;;;;;;;;;;;20.70;99.90;;;;;;5069738;28;19916;-64
2021/07/23 12:02:28;;;;;;;;;;;20.70;99.90;;;;;;5060789;28;19911;-67
2021/07/23 12:05:02;;;;;;;;;;;20.70;99.90;;;;;;5070984;28;19916;-65
2021/07/23 12:07:28;;;;;;;;;;;20.80;99.90;;;;;;5052980;28;19918;-67
2021/07/23 12:09:53;;;;;;;;;;;20.80;99.90;;;;;;5068787;28;20010;-65
2021/07/23 12:12:20;;;;;;;;;;;20.80;99.90;;;;;;5072046;28;19909;-65
2021/07/23 12:14:46;;;;;;;;;;;20.80;99.90;;;;;;5070239;28;19961;-64
2021/07/23 12:17:13;;;;;;;;;;;20.90;99.90;;;;;;5072004;28;20356;-65
2021/07/23 12:19:39;;;;;;;;;;;20.90;99.90;;;;;;5054183;28;19905;-64
2021/07/23 12:22:09;;;;;;;;;;;20.80;99.90;;;;;;5053671;28;19919;-65
2021/07/23 12:24:35;;;;;;;;;;;20.90;99.90;;;;;;5060854;28;20268;-65
2021/07/23 12:27:12;;;;;;;;;;;21.00;99.90;;;;;;5070619;28;19915;-67
2021/07/23 12:29:38;;;;;;;;;;;21.10;99.90;;;;;;5063713;28;19957;-65
2021/07/23 12:32:14;;;;;;;;;;;21.20;99.90;;;;;;5068001;28;19904;-67
2021/07/23 12:34:40;;;;;;;;;;;21.30;99.90;;;;;;5053721;28;19913;-66
2021/07/23 12:37:16;;;;;;;;;;;21.40;99.90;;;;;;5071705;28;19905;-67
2021/07/23 12:39:49;;;;;;;;;;;21.50;99.90;;;;;;5071883;28;19904;-65
2021/07/23 12:42:18;;;;;;;;;;;21.60;99.90;;;;;;5044526;28;20080;-67
2021/07/23 12:44:43;;;;;;;;;;;21.60;99.90;;;;;;5071068;28;19912;-65
2021/07/23 12:47:15;;;;;;;;;;;21.50;99.90;;;;;;5071492;28;19919;-66
2021/07/23 12:49:41;;;;;;;;;;;21.40;99.90;;;;;;5061886;28;19985;-67
2021/07/23 12:52:06;;;;;;;;;;;21.40;99.90;;;;;;5053239;28;19948;-65
2021/07/23 12:54:35;;;;;;;;;;;21.40;99.90;;;;;;5071091;28;19991;-66
2021/07/23 12:57:10;;;;;;;;;;;21.40;99.90;;;;;;5051131;28;20319;-67
2021/07/23 12:59:36;;;;;;;;;;;21.50;99.90;;;;;;5067368;28;20006;-66
2021/07/23 13:02:01;;;;;;;;;;;21.50;99.90;;;;;;5071395;28;19987;-67
2021/07/23 13:04:27;;;;;;;;;;;21.60;99.90;;;;;;5071242;28;19912;-67
2021/07/23 13:06:52;;;;;;;;;;;21.60;99.90;;;;;;5069463;28;19908;-67
2021/07/23 13:09:18;;;;;;;;;;;21.50;99.90;;;;;;5071414;28;20010;-66
2021/07/23 13:11:46;;;;;;;;;;;21.50;99.90;;;;;;5067791;28;20272;-66
2021/07/23 13:14:11;;;;;;;;;;;21.50;99.90;;;;;;5065152;28;19908;-66
2021/07/23 13:16:37;;;;;;;;;;;21.50;99.90;;;;;;5071260;28;19958;-67
2021/07/23 13:19:02;;;;;;;;;;;21.40;99.90;;;;;;5053313;28;19904;-67
2021/07/23 13:21:28;;;;;;;;;;;21.40;99.90;;;;;;5069446;28;19939;-65
2021/07/23 13:23:53;;;;;;;;;;;21.30;99.90;;;;;;5069562;28;20010;-66
2021/07/23 13:26:19;;;;;;;;;;;21.30;99.90;;;;;;5071225;28;19912;-66
2021/07/23 13:28:44;;;;;;;;;;;21.30;99.90;;;;;;5071449;28;20003;-67
2021/07/23 13:31:10;;;;;;;;;;;21.30;99.90;;;;;;5069727;28;19923;-65
2021/07/23 13:33:35;;;;;;;;;;;21.30;99.90;;;;;;5070806;28;19990;-65
2021/07/23 13:36:04;;;;;;;;;;;21.30;99.90;;;;;;5052984;28;19919;-65
2021/07/23 13:38:32;;;;;;;;;;;21.30;99.90;;;;;;5060093;28;19947;-65
2021/07/23 13:41:02;;;;;;;;;;;21.30;99.90;;;;;;5071269;28;20364;-65
2021/07/23 13:43:30;;;;;;;;;;;21.30;99.90;;;;;;5070866;28;20260;-65
2021/07/23 13:45:55;;;;;;;;;;;21.30;99.90;;;;;;5074825;28;19931;-65
2021/07/23 13:48:20;;;;;;;;;;;21.30;99.90;;;;;;5071971;28;19958;-65
2021/07/23 13:50:46;;;;;;;;;;;21.20;99.90;;;;;;5071929;28;20299;-66
2021/07/23 13:53:12;;;;;;;;;;;21.20;99.90;;;;;;5071185;28;19920;-65
2021/07/23 13:55:38;;;;;;;;;;;21.10;99.90;;;;;;5065757;28;20307;-65
2021/07/23 13:58:05;;;;;;;;;;;21.10;99.90;;;;;;5056530;28;19911;-65
2021/07/23 14:00:31;;;;;;;;;;;21.10;99.90;;;;;;5074826;28;20035;-65
2021/07/23 14:02:59;;;;;;;;;;;21.10;99.90;;;;;;5061557;28;20007;-65
2021/07/23 14:05:24;;;;;;;;;;;21.00;99.90;;;;;;5073016;28;19908;-65
2021/07/23 14:07:50;;;;;;;;;;;21.00;99.90;;;;;;5072933;28;19913;-66
2021/07/23 14:10:15;;;;;;;;;;;21.00;99.90;;;;;;5074454;28;19955;-65
2021/07/23 14:12:41;;;;;;;;;;;21.10;99.90;;;;;;5053131;28;19916;-64
2021/07/23 14:15:06;;;;;;;;;;;21.10;99.90;;;;;;5063800;28;20399;-65
2021/07/23 14:17:32;;;;;;;;;;;21.00;99.90;;;;;;5074333;28;19911;-67